Time;durP1;ratioP1;P1;durP2;ratioP2;P2;SDS_P1;SDS_P2;PMS_P1;PMS_P2;Temp;Humidity;BMP_temperature;BMP_pressure;BME280_temperature;BME280_humidity;BME280_pressure;Samples;Min_cycle;Max_cycle;Signal;HPM_P1;HPM_P2
2022/10/12 00:00:57;;;;;;;;;;;19.70;99.90;;;;;;5039968;28;19924;-79
2022/10/12 00:03:24;;;;;;;;;;;19.80;99.90;;;;;;5043036;28;19917;-76
2022/10/12 00:06:05;;;;;;;;;;;19.80;99.90;;;;;;5045212;28;19999;-78
2022/10/12 00:08:33;;;;;;;;;;;19.70;99.90;;;;;;5039512;28;19912;-79
2022/10/12 00:10:59;;;;;;;;;;;19.70;99.90;;;;;;5045861;28;19916;-80
2022/10/12 00:13:26;;;;;;;;;;;19.80;99.90;;;;;;5050022;28;19921;-84
2022/10/12 00:15:53;;;;;;;;;;;20.40;99.90;;;;;;5024440;28;20467;-81
2022/10/12 00:18:20;;;;;;;;;;;21.60;99.90;;;;;;5046102;28;19917;-77
2022/10/12 00:20:46;;;;;;;;;;;22.10;99.90;;;;;;5038939;28;19923;-78
2022/10/12 00:23:13;;;;;;;;;;;22.30;99.90;;;;;;5049975;28;20279;-78
2022/10/12 00:25:40;;;;;;;;;;;22.20;99.90;;;;;;5044929;28;19920;-81
2022/10/12 00:28:07;;;;;;;;;;;22.30;99.90;;;;;;5046660;28;19917;-83
2022/10/12 00:30:34;;;;;;;;;;;22.10;99.90;;;;;;5043039;28;19913;-77
2022/10/12 00:33:01;;;;;;;;;;;21.50;99.90;;;;;;5052902;28;19948;-84
2022/10/12 00:35:28;;;;;;;;;;;21.20;99.90;;;;;;5042964;28;19956;-84
2022/10/12 00:37:55;;;;;;;;;;;21.10;99.90;;;;;;5050295;28;20291;-84
2022/10/12 00:40:22;;;;;;;;;;;21.30;99.90;;;;;;5051776;28;19917;-84
2022/10/12 00:42:49;;;;;;;;;;;21.40;99.90;;;;;;5051455;28;19917;-83
2022/10/12 00:45:16;;;;;;;;;;;22.00;99.90;;;;;;5044464;28;19936;-82
2022/10/12 00:47:47;;;;;;;;;;;22.40;99.90;;;;;;5049457;28;19970;-81
2022/10/12 00:50:17;;;;;;;;;;;22.20;99.90;;;;;;5044797;28;19916;-80
2022/10/12 00:52:57;;;;;;;;;;;22.30;99.90;;;;;;5039608;28;20360;-83
2022/10/12 00:55:25;;;;;;;;;;;22.30;99.90;;;;;;5041431;28;19947;-80
2022/10/12 00:57:53;;;;;;;;;;;22.50;99.90;;;;;;5039360;28;19924;-81
2022/10/12 01:00:20;;;;;;;;;;;22.90;99.00;;;;;;5040933;28;19913;-82
2022/10/12 01:02:48;;;;;;;;;;;23.10;99.30;;;;;;5040901;28;19921;-82
2022/10/12 01:05:14;;;;;;;;;;;23.20;99.00;;;;;;5047890;28;19912;-83
2022/10/12 01:07:41;;;;;;;;;;;23.40;99.00;;;;;;5035126;28;19924;-83
2022/10/12 01:10:08;;;;;;;;;;;23.50;99.00;;;;;;5043337;28;19928;-85
2022/10/12 01:12:36;;;;;;;;;;;23.50;98.80;;;;;;5058068;28;19913;-82
2022/10/12 01:15:03;;;;;;;;;;;23.40;98.30;;;;;;5042849;28;19936;-83
2022/10/12 01:17:43;;;;;;;;;;;23.20;98.00;;;;;;5041981;28;19917;-82
2022/10/12 01:20:20;;;;;;;;;;;22.90;98.70;;;;;;5040254;28;19976;-82
2022/10/12 01:22:53;;;;;;;;;;;22.70;99.10;;;;;;5038284;28;21046;-81
2022/10/12 01:25:29;;;;;;;;;;;22.40;99.50;;;;;;5048194;28;20421;-81
2022/10/12 01:28:02;;;;;;;;;;;22.40;99.30;;;;;;5048127;28;19913;-81
2022/10/12 01:30:40;;;;;;;;;;;22.20;99.50;;;;;;5046543;28;20523;-82
2022/10/12 01:33:12;;;;;;;;;;;21.90;99.70;;;;;;5044414;28;19925;-81
2022/10/12 01:35:43;;;;;;;;;;;21.80;99.50;;;;;;5042235;28;19932;-82
2022/10/12 01:38:32;;;;;;;;;;;21.80;99.90;;;;;;5050920;28;19917;-82
2022/10/12 01:40:59;;;;;;;;;;;21.90;99.90;;;;;;5042754;28;19944;-81
2022/10/12 01:43:36;;;;;;;;;;;22.30;99.90;;;;;;5051594;28;19915;-82
2022/10/12 01:46:26;;;;;;;;;;;22.80;99.60;;;;;;5044298;28;20348;-81
2022/10/12 01:48:54;;;;;;;;;;;23.40;99.80;;;;;;5033189;28;19968;-81
2022/10/12 01:51:39;;;;;;;;;;;23.50;98.30;;;;;;5053890;28;20279;-81
2022/10/12 01:54:08;;;;;;;;;;;23.50;98.50;;;;;;5045212;28;19980;-82
2022/10/12 01:56:35;;;;;;;;;;;23.90;97.50;;;;;;5046540;28;19920;-80
2022/10/12 01:59:10;;;;;;;;;;;24.10;97.10;;;;;;5051281;28;19919;-80
2022/10/12 02:01:39;;;;;;;;;;;24.00;98.10;;;;;;5036344;28;19913;-80
2022/10/12 02:04:11;;;;;;;;;;;23.70;96.90;;;;;;5050683;28;19951;-79
2022/10/12 02:06:41;;;;;;;;;;;23.20;97.70;;;;;;5048646;28;19923;-81
2022/10/12 02:09:12;;;;;;;;;;;22.80;98.20;;;;;;5049738;28;19916;-80
2022/10/12 02:11:40;;;;;;;;;;;22.60;98.60;;;;;;5033767;28;19913;-83
2022/10/12 02:14:30;;;;;;;;;;;22.20;98.80;;;;;;5049064;28;19932;-80
2022/10/12 02:16:58;;;;;;;;;;;21.90;99.80;;;;;;5026287;28;19924;-82
2022/10/12 02:19:26;;;;;;;;;;;21.70;99.90;;;;;;5050936;28;19917;-82
2022/10/12 02:21:55;;;;;;;;;;;21.60;99.90;;;;;;5048812;28;20279;-81
2022/10/12 02:24:23;;;;;;;;;;;21.40;99.90;;;;;;5042506;28;19917;-82
2022/10/12 02:26:52;;;;;;;;;;;21.30;99.90;;;;;;5038095;28;19920;-82
2022/10/12 02:29:21;;;;;;;;;;;21.10;99.90;;;;;;5039407;28;19920;-81
2022/10/12 02:31:52;;;;;;;;;;;21.00;99.90;;;;;;5052148;28;19924;-82
2022/10/12 02:34:23;;;;;;;;;;;20.80;99.90;;;;;;5050021;28;19920;-83
2022/10/12 02:36:51;;;;;;;;;;;20.60;99.90;;;;;;5046621;28;19913;-84
2022/10/12 02:39:41;;;;;;;;;;;20.50;99.90;;;;;;5044451;28;19944;-83
2022/10/12 02:42:10;;;;;;;;;;;20.60;99.90;;;;;;5039606;28;20060;-80
2022/10/12 02:44:38;;;;;;;;;;;20.70;99.90;;;;;;5054387;28;19912;-84
2022/10/12 02:47:06;;;;;;;;;;;20.80;99.90;;;;;;5049374;28;19923;-84
2022/10/12 02:49:34;;;;;;;;;;;21.10;99.90;;;;;;5050531;28;20003;-83
2022/10/12 02:52:02;;;;;;;;;;;21.50;99.90;;;;;;5047897;28;19920;-82
2022/10/12 02:54:29;;;;;;;;;;;21.60;99.90;;;;;;5048282;28;19932;-82
2022/10/12 02:56:56;;;;;;;;;;;21.70;99.90;;;;;;5029363;28;19995;-83
2022/10/12 02:59:22;;;;;;;;;;;21.80;99.90;;;;;;5044149;28;19913;-80
2022/10/12 03:01:49;;;;;;;;;;;21.80;99.90;;;;;;5048017;28;19917;-85
2022/10/12 03:04:16;;;;;;;;;;;21.70;99.90;;;;;;5048967;28;19921;-84
2022/10/12 03:06:43;;;;;;;;;;;21.60;99.90;;;;;;5049470;28;20286;-83
2022/10/12 03:09:10;;;;;;;;;;;21.60;99.90;;;;;;5047543;28;19917;-80
2022/10/12 03:11:36;;;;;;;;;;;21.50;99.90;;;;;;5029238;28;19960;-82
2022/10/12 03:14:03;;;;;;;;;;;21.60;99.90;;;;;;5047758;28;19960;-82
2022/10/12 03:16:30;;;;;;;;;;;21.60;99.90;;;;;;5047402;28;19924;-83
2022/10/12 03:18:56;;;;;;;;;;;21.70;99.90;;;;;;5029953;28;19912;-83
2022/10/12 03:21:23;;;;;;;;;;;21.70;99.90;;;;;;5047252;28;20275;-84
2022/10/12 03:23:50;;;;;;;;;;;21.50;99.90;;;;;;5036979;28;20654;-86
2022/10/12 03:26:16;;;;;;;;;;;21.50;99.70;;;;;;5041402;28;19913;-80
2022/10/12 03:28:43;;;;;;;;;;;21.40;99.90;;;;;;5041645;28;19995;-85
2022/10/12 03:31:10;;;;;;;;;;;21.60;99.90;;;;;;5043662;28;20058;-86
2022/10/12 03:33:36;;;;;;;;;;;21.60;99.80;;;;;;5046675;28;20371;-84
2022/10/12 03:36:03;;;;;;;;;;;21.60;99.90;;;;;;5042233;28;19916;-84
2022/10/12 03:38:30;;;;;;;;;;;21.80;99.90;;;;;;5037232;28;20271;-82
2022/10/12 03:40:57;;;;;;;;;;;21.90;99.40;;;;;;5031507;28;19924;-82
2022/10/12 03:43:23;;;;;;;;;;;21.90;99.20;;;;;;5044279;28;19916;-81
2022/10/12 03:45:51;;;;;;;;;;;22.00;99.40;;;;;;5049597;28;20012;-83
2022/10/12 03:48:19;;;;;;;;;;;22.00;99.00;;;;;;5047440;28;19921;-84
2022/10/12 03:50:50;;;;;;;;;;;22.10;99.40;;;;;;5055282;28;20371;-81
2022/10/12 03:53:17;;;;;;;;;;;22.20;99.10;;;;;;5033688;28;20028;-81
2022/10/12 03:55:44;;;;;;;;;;;22.30;98.70;;;;;;5017156;28;20626;-80
2022/10/12 03:58:11;;;;;;;;;;;22.30;98.70;;;;;;5042891;28;20011;-85
2022/10/12 04:00:37;;;;;;;;;;;22.10;98.80;;;;;;5038029;28;20387;-81
2022/10/12 04:03:04;;;;;;;;;;;21.90;99.00;;;;;;5037702;28;20328;-81
2022/10/12 04:05:31;;;;;;;;;;;21.80;99.40;;;;;;5042226;28;19913;-81
2022/10/12 04:07:58;;;;;;;;;;;21.70;99.70;;;;;;5043363;28;19921;-81
2022/10/12 04:10:25;;;;;;;;;;;21.60;99.90;;;;;;5042814;28;19942;-82
2022/10/12 04:12:51;;;;;;;;;;;21.50;99.90;;;;;;5053379;28;19920;-84
2022/10/12 04:15:18;;;;;;;;;;;21.40;99.90;;;;;;5041171;28;20374;-78
2022/10/12 04:17:45;;;;;;;;;;;21.30;99.90;;;;;;5044676;28;19917;-86
2022/10/12 04:20:12;;;;;;;;;;;21.20;99.90;;;;;;5045878;28;19913;-81
2022/10/12 04:22:39;;;;;;;;;;;21.20;99.90;;;;;;5050751;28;19917;-83
2022/10/12 04:25:06;;;;;;;;;;;21.30;99.90;;;;;;5047725;28;19948;-87
2022/10/12 04:27:33;;;;;;;;;;;21.30;99.90;;;;;;5056245;28;20360;-86
2022/10/12 04:29:59;;;;;;;;;;;21.40;99.90;;;;;;5047741;28;20371;-82
2022/10/12 04:32:26;;;;;;;;;;;21.40;99.90;;;;;;5050243;28;19921;-84
2022/10/12 04:34:52;;;;;;;;;;;21.50;99.90;;;;;;5050915;28;20020;-85
2022/10/12 04:37:19;;;;;;;;;;;21.40;99.90;;;;;;5051303;28;19939;-88
2022/10/12 04:39:46;;;;;;;;;;;21.30;99.90;;;;;;5049345;28;19978;-83
2022/10/12 04:42:12;;;;;;;;;;;21.30;99.90;;;;;;5056317;28;19919;-83
2022/10/12 04:44:39;;;;;;;;;;;21.20;99.90;;;;;;5054203;28;19923;-82
2022/10/12 04:47:06;;;;;;;;;;;21.10;99.90;;;;;;5046867;28;19924;-85
2022/10/12 04:49:33;;;;;;;;;;;20.90;99.90;;;;;;5039528;28;20003;-82
2022/10/12 04:51:59;;;;;;;;;;;20.80;99.90;;;;;;5041097;28;19921;-82
2022/10/12 04:54:26;;;;;;;;;;;20.70;99.90;;;;;;5042031;28;19925;-80
2022/10/12 04:56:52;;;;;;;;;;;20.70;99.90;;;;;;5047366;28;19920;-87
2022/10/12 04:59:19;;;;;;;;;;;20.50;99.90;;;;;;5050052;28;19916;-75
2022/10/12 05:01:46;;;;;;;;;;;20.50;99.90;;;;;;5051237;28;19924;-74
2022/10/12 05:04:12;;;;;;;;;;;20.40;99.90;;;;;;5044724;28;19919;-72
2022/10/12 05:06:39;;;;;;;;;;;20.40;99.90;;;;;;5037693;28;20367;-76
2022/10/12 05:09:06;;;;;;;;;;;20.40;99.90;;;;;;5040029;28;19920;-77
2022/10/12 05:11:33;;;;;;;;;;;20.40;99.90;;;;;;5048622;28;20278;-77
2022/10/12 05:13:59;;;;;;;;;;;20.40;99.90;;;;;;5045166;28;19921;-78
2022/10/12 05:16:26;;;;;;;;;;;20.40;99.90;;;;;;5036347;28;19996;-77
2022/10/12 05:18:53;;;;;;;;;;;20.40;99.90;;;;;;5042699;28;19976;-77
2022/10/12 05:21:19;;;;;;;;;;;20.40;99.90;;;;;;5048336;28;19944;-77
2022/10/12 05:23:49;;;;;;;;;;;20.40;99.90;;;;;;5044408;28;20011;-75
2022/10/12 05:26:16;;;;;;;;;;;20.40;99.90;;;;;;5039482;28;19920;-75
2022/10/12 05:28:43;;;;;;;;;;;20.40;99.90;;;;;;5046566;28;19917;-76
2022/10/12 05:31:09;;;;;;;;;;;20.50;99.90;;;;;;5044641;28;19917;-76
2022/10/12 05:33:36;;;;;;;;;;;20.40;99.90;;;;;;5045983;28;19921;-77
2022/10/12 05:36:03;;;;;;;;;;;20.40;99.90;;;;;;5034152;28;19916;-77
2022/10/12 05:38:29;;;;;;;;;;;20.40;99.90;;;;;;5043954;28;19913;-74
2022/10/12 05:40:56;;;;;;;;;;;20.50;99.90;;;;;;5042745;28;20306;-78
2022/10/12 05:43:22;;;;;;;;;;;20.50;99.90;;;;;;5050251;28;20664;-77
2022/10/12 05:45:49;;;;;;;;;;;20.50;99.90;;;;;;5051177;28;19921;-77
2022/10/12 05:48:16;;;;;;;;;;;20.50;99.90;;;;;;5047944;28;19913;-75
2022/10/12 05:50:42;;;;;;;;;;;20.50;99.90;;;;;;5046607;28;19924;-77
2022/10/12 05:53:09;;;;;;;;;;;20.50;99.90;;;;;;5048300;28;19916;-76
2022/10/12 05:55:36;;;;;;;;;;;20.40;99.90;;;;;;5047903;28;20303;-76
2022/10/12 05:58:02;;;;;;;;;;;20.50;99.90;;;;;;5047710;28;20625;-75
2022/10/12 06:00:29;;;;;;;;;;;20.40;99.90;;;;;;5048094;28;19921;-76
2022/10/12 06:02:56;;;;;;;;;;;20.40;99.90;;;;;;5044355;28;19920;-78
2022/10/12 06:05:23;;;;;;;;;;;20.40;99.90;;;;;;5038932;28;19913;-79
2022/10/12 06:07:50;;;;;;;;;;;20.40;99.90;;;;;;5044033;28;19919;-77
2022/10/12 06:10:17;;;;;;;;;;;20.40;99.90;;;;;;5044391;28;19913;-77
2022/10/12 06:12:43;;;;;;;;;;;20.40;99.90;;;;;;5051567;28;19913;-82
2022/10/12 06:15:10;;;;;;;;;;;20.40;99.90;;;;;;5046473;28;19956;-79
2022/10/12 06:17:37;;;;;;;;;;;20.40;99.90;;;;;;5046784;28;19952;-78
2022/10/12 06:20:04;;;;;;;;;;;20.40;99.90;;;;;;5042663;28;20003;-78
2022/10/12 06:22:30;;;;;;;;;;;20.30;99.90;;;;;;5041891;28;19932;-75
2022/10/12 06:24:57;;;;;;;;;;;20.20;99.90;;;;;;5045612;28;20364;-76
2022/10/12 06:27:24;;;;;;;;;;;20.20;99.90;;;;;;5034741;28;20319;-76
2022/10/12 06:29:50;;;;;;;;;;;20.20;99.90;;;;;;5039445;28;19917;-77
2022/10/12 06:32:17;;;;;;;;;;;20.00;99.90;;;;;;5047836;28;19928;-75
2022/10/12 06:34:44;;;;;;;;;;;19.90;99.90;;;;;;5044737;28;19972;-76
2022/10/12 06:37:11;;;;;;;;;;;19.80;99.90;;;;;;5039031;28;19967;-76
2022/10/12 06:39:37;;;;;;;;;;;19.80;99.90;;;;;;5039052;28;20367;-77
2022/10/12 06:42:04;;;;;;;;;;;19.70;99.90;;;;;;5046639;28;20280;-77
2022/10/12 06:44:31;;;;;;;;;;;19.80;99.90;;;;;;5046721;28;19920;-77
2022/10/12 06:46:58;;;;;;;;;;;19.70;99.90;;;;;;5047345;28;19943;-76
2022/10/12 06:49:25;;;;;;;;;;;19.70;99.90;;;;;;5042268;28;19913;-76
2022/10/12 06:51:51;;;;;;;;;;;19.60;99.90;;;;;;5048142;28;19917;-74
2022/10/12 06:54:18;;;;;;;;;;;19.50;99.90;;;;;;5034486;28;20398;-75
2022/10/12 06:56:45;;;;;;;;;;;19.40;99.90;;;;;;5041895;28;19952;-73
2022/10/12 06:59:12;;;;;;;;;;;19.20;99.90;;;;;;5048676;28;19924;-76
2022/10/12 07:01:39;;;;;;;;;;;19.20;99.90;;;;;;5047231;28;20004;-75
2022/10/12 07:04:05;;;;;;;;;;;19.10;99.90;;;;;;5041951;28;19924;-76
2022/10/12 07:06:32;;;;;;;;;;;19.10;99.90;;;;;;5037892;28;20029;-75
2022/10/12 07:09:00;;;;;;;;;;;19.10;99.90;;;;;;5047161;28;20012;-77
2022/10/12 07:11:26;;;;;;;;;;;19.10;99.90;;;;;;5041917;28;19982;-78
2022/10/12 07:13:53;;;;;;;;;;;19.00;99.90;;;;;;5042093;28;20351;-76
2022/10/12 07:16:20;;;;;;;;;;;19.00;99.90;;;;;;5055929;28;19920;-75
2022/10/12 07:18:46;;;;;;;;;;;18.90;99.90;;;;;;5039431;28;20499;-74
2022/10/12 07:21:13;;;;;;;;;;;18.80;99.90;;;;;;5044126;28;19924;-74
2022/10/12 07:23:40;;;;;;;;;;;18.80;99.90;;;;;;5047571;28;19947;-75
2022/10/12 07:26:07;;;;;;;;;;;18.70;99.90;;;;;;5038258;28;19913;-74
2022/10/12 07:28:34;;;;;;;;;;;18.60;99.90;;;;;;5046705;28;19924;-73
2022/10/12 07:31:05;;;;;;;;;;;18.60;99.90;;;;;;5035873;28;19936;-74
2022/10/12 07:33:33;;;;;;;;;;;18.60;99.90;;;;;;5052355;28;19916;-74
2022/10/12 07:36:00;;;;;;;;;;;18.50;99.90;;;;;;5052560;28;19931;-74
2022/10/12 07:38:27;;;;;;;;;;;18.50;99.90;;;;;;5048472;28;20359;-76
2022/10/12 07:40:54;;;;;;;;;;;18.50;99.90;;;;;;5052706;28;19949;-75
2022/10/12 07:43:20;;;;;;;;;;;18.40;99.90;;;;;;5040851;28;19913;-75
2022/10/12 07:45:47;;;;;;;;;;;18.30;99.90;;;;;;5050865;28;20007;-75
2022/10/12 07:48:14;;;;;;;;;;;18.30;99.90;;;;;;5053843;28;19927;-77
2022/10/12 07:50:41;;;;;;;;;;;18.30;99.90;;;;;;5053508;28;19927;-76
2022/10/12 07:53:07;;;;;;;;;;;18.20;99.90;;;;;;5054366;28;19919;-76
2022/10/12 07:55:34;;;;;;;;;;;18.20;99.90;;;;;;5050598;28;19920;-75
2022/10/12 07:58:01;;;;;;;;;;;18.10;99.90;;;;;;5053199;28;19917;-75
2022/10/12 08:00:28;;;;;;;;;;;18.10;99.90;;;;;;5043964;28;19943;-75
2022/10/12 08:02:55;;;;;;;;;;;18.10;99.90;;;;;;5051878;28;19912;-76
2022/10/12 08:05:22;;;;;;;;;;;18.00;99.90;;;;;;5039523;28;20368;-75
2022/10/12 08:07:49;;;;;;;;;;;18.00;99.90;;;;;;5041668;28;19916;-76
2022/10/12 08:10:16;;;;;;;;;;;17.90;99.90;;;;;;5051473;28;19916;-77
2022/10/12 08:12:43;;;;;;;;;;;17.90;99.90;;;;;;5048132;28;20330;-76
2022/10/12 08:15:10;;;;;;;;;;;17.90;99.90;;;;;;5040524;28;19971;-75
2022/10/12 08:17:37;;;;;;;;;;;17.90;99.90;;;;;;5045292;28;20371;-74
2022/10/12 08:20:04;;;;;;;;;;;17.90;99.90;;;;;;5052015;28;19913;-77
2022/10/12 08:22:31;;;;;;;;;;;17.80;99.90;;;;;;5051451;28;19924;-75
2022/10/12 08:24:58;;;;;;;;;;;17.80;99.90;;;;;;5042868;28;19974;-74
2022/10/12 08:27:24;;;;;;;;;;;17.80;99.90;;;;;;5050555;28;20007;-77
2022/10/12 08:29:51;;;;;;;;;;;17.80;99.90;;;;;;5041565;28;19923;-74
2022/10/12 08:32:18;;;;;;;;;;;17.70;99.90;;;;;;5042455;28;19935;-75
2022/10/12 08:34:44;;;;;;;;;;;17.70;99.90;;;;;;5044251;28;19921;-76
2022/10/12 08:37:11;;;;;;;;;;;17.70;99.90;;;;;;5050573;28;19920;-76
2022/10/12 08:39:38;;;;;;;;;;;17.60;99.90;;;;;;5042554;28;19921;-75
2022/10/12 08:42:33;;;;;;;;;;;17.60;99.90;;;;;;5049014;28;20355;-74
2022/10/12 08:45:24;;;;;;;;;;;17.60;99.90;;;;;;5041394;28;20404;-76
2022/10/12 08:47:53;;;;;;;;;;;17.60;99.90;;;;;;5044848;28;20360;-74
2022/10/12 08:50:33;;;;;;;;;;;17.50;99.90;;;;;;5049900;28;19975;-75
2022/10/12 08:53:08;;;;;;;;;;;17.50;99.90;;;;;;5034513;28;19913;-75
2022/10/12 08:55:38;;;;;;;;;;;17.50;99.90;;;;;;5039494;28;19929;-77
2022/10/12 08:58:11;;;;;;;;;;;17.50;99.90;;;;;;5051631;28;19924;-75
2022/10/12 09:00:38;;;;;;;;;;;17.50;99.90;;;;;;5049523;28;19956;-77
2022/10/12 09:03:10;;;;;;;;;;;17.50;99.90;;;;;;5051932;28;19924;-75
2022/10/12 09:05:41;;;;;;;;;;;17.40;99.90;;;;;;5045756;28;20353;-76
2022/10/12 09:08:23;;;;;;;;;;;17.40;99.90;;;;;;5051646;28;19921;-77
2022/10/12 09:10:57;;;;;;;;;;;17.30;99.90;;;;;;5051729;28;20307;-76
2022/10/12 09:13:30;;;;;;;;;;;17.40;99.90;;;;;;5033418;28;19913;-75
2022/10/12 09:15:59;;;;;;;;;;;17.30;99.90;;;;;;5048607;28;20403;-77
2022/10/12 09:18:43;;;;;;;;;;;17.30;99.90;;;;;;5051168;28;19909;-76
2022/10/12 09:21:16;;;;;;;;;;;17.20;99.90;;;;;;5039956;28;20287;-76
2022/10/12 09:23:45;;;;;;;;;;;17.20;99.90;;;;;;5047791;28;20416;-76
2022/10/12 09:26:41;;;;;;;;;;;17.20;99.90;;;;;;5045721;28;19913;-76
2022/10/12 09:29:27;;;;;;;;;;;17.10;99.90;;;;;;5039501;28;20042;-76
2022/10/12 09:32:03;;;;;;;;;;;17.10;99.90;;;;;;5051056;28;19921;-77
2022/10/12 09:34:30;;;;;;;;;;;17.10;99.90;;;;;;5050446;28;20449;-75
2022/10/12 09:36:57;;;;;;;;;;;17.10;99.90;;;;;;5051222;28;19913;-76
2022/10/12 09:39:24;;;;;;;;;;;17.10;99.90;;;;;;5048570;28;19955;-76
2022/10/12 09:41:50;;;;;;;;;;;17.10;99.90;;;;;;5050884;28;19913;-74
2022/10/12 09:44:30;;;;;;;;;;;17.00;99.90;;;;;;5031577;28;19916;-74
2022/10/12 09:47:01;;;;;;;;;;;17.00;99.90;;;;;;5049729;28;19916;-76
2022/10/12 09:49:41;;;;;;;;;;;17.00;99.90;;;;;;5050094;28;19916;-76
2022/10/12 09:52:08;;;;;;;;;;;16.90;99.90;;;;;;5042154;28;19923;-76
2022/10/12 09:54:35;;;;;;;;;;;16.90;99.90;;;;;;5048152;28;19925;-75
2022/10/12 09:57:02;;;;;;;;;;;16.90;99.90;;;;;;5051076;28;19956;-75
2022/10/12 09:59:31;;;;;;;;;;;16.90;99.90;;;;;;5043170;28;20348;-76
2022/10/12 10:02:03;;;;;;;;;;;16.90;99.90;;;;;;5050337;28;19921;-77
2022/10/12 10:04:30;;;;;;;;;;;17.00;99.90;;;;;;5047536;28;20589;-75
2022/10/12 10:07:12;;;;;;;;;;;17.00;99.90;;;;;;5050591;28;19936;-75
2022/10/12 10:09:38;;;;;;;;;;;17.00;99.90;;;;;;5048294;28;19917;-74
2022/10/12 10:12:21;;;;;;;;;;;17.00;99.90;;;;;;5039661;28;20368;-75
2022/10/12 10:14:48;;;;;;;;;;;16.90;99.90;;;;;;5050183;28;20002;-75
2022/10/12 10:17:16;;;;;;;;;;;16.90;99.90;;;;;;5046486;28;20367;-76
2022/10/12 10:19:53;;;;;;;;;;;16.90;99.90;;;;;;5041792;28;20015;-76
2022/10/12 10:22:20;;;;;;;;;;;16.80;99.90;;;;;;5051198;28;19916;-77
2022/10/12 10:24:50;;;;;;;;;;;16.80;99.90;;;;;;5049103;28;19924;-78
2022/10/12 10:27:46;;;;;;;;;;;16.70;99.90;;;;;;5050990;28;19967;-75
2022/10/12 10:30:16;;;;;;;;;;;16.70;99.90;;;;;;5040850;28;19975;-74
2022/10/12 10:32:43;;;;;;;;;;;16.60;99.90;;;;;;5046831;28;21279;-77
2022/10/12 10:35:12;;;;;;;;;;;16.60;99.90;;;;;;5050085;28;20031;-76
2022/10/12 10:37:44;;;;;;;;;;;16.50;99.90;;;;;;5049078;28;19923;-76
2022/10/12 10:40:20;;;;;;;;;;;16.50;99.90;;;;;;5041842;28;19913;-76
2022/10/12 10:42:56;;;;;;;;;;;16.50;99.90;;;;;;5043308;28;20384;-74
2022/10/12 10:45:31;;;;;;;;;;;16.40;99.90;;;;;;5046224;28;19984;-76
2022/10/12 10:48:01;;;;;;;;;;;16.40;99.90;;;;;;5045900;28;19917;-75
2022/10/12 10:50:36;;;;;;;;;;;16.40;99.90;;;;;;5046654;28;20224;-76
2022/10/12 10:53:05;;;;;;;;;;;16.30;99.90;;;;;;5046898;28;19927;-76
2022/10/12 10:55:41;;;;;;;;;;;16.30;99.90;;;;;;5048190;28;20047;-77
2022/10/12 10:58:17;;;;;;;;;;;16.30;99.90;;;;;;5051634;28;20129;-77
2022/10/12 11:00:46;;;;;;;;;;;16.30;99.90;;;;;;5045252;28;19916;-76
2022/10/12 11:03:16;;;;;;;;;;;16.30;99.90;;;;;;5044494;28;20442;-75
2022/10/12 11:05:44;;;;;;;;;;;16.20;99.90;;;;;;5045508;28;19917;-77
2022/10/12 11:08:11;;;;;;;;;;;16.20;99.90;;;;;;5050011;28;19917;-76
2022/10/12 11:10:44;;;;;;;;;;;16.20;99.90;;;;;;5039557;28;19920;-76
2022/10/12 11:13:19;;;;;;;;;;;16.20;99.90;;;;;;5044047;28;19928;-74
2022/10/12 11:15:57;;;;;;;;;;;16.10;99.90;;;;;;5053302;28;20358;-76
2022/10/12 11:18:33;;;;;;;;;;;16.10;99.90;;;;;;5047381;28;19923;-76
2022/10/12 11:21:03;;;;;;;;;;;16.10;99.90;;;;;;5029199;28;19913;-76
2022/10/12 11:23:37;;;;;;;;;;;16.00;99.90;;;;;;5037652;28;19917;-77
2022/10/12 11:26:30;;;;;;;;;;;16.00;99.90;;;;;;5046746;28;19913;-76
2022/10/12 11:28:59;;;;;;;;;;;16.00;99.90;;;;;;5038899;28;20008;-75
2022/10/12 11:31:48;;;;;;;;;;;15.90;99.90;;;;;;5049927;28;19921;-75
2022/10/12 11:34:18;;;;;;;;;;;15.90;99.90;;;;;;5041980;28;19920;-76
2022/10/12 11:36:46;;;;;;;;;;;15.90;99.90;;;;;;5042333;28;19917;-76
2022/10/12 11:39:22;;;;;;;;;;;15.80;99.90;;;;;;5050253;28;19921;-74
2022/10/12 11:41:50;;;;;;;;;;;15.80;99.90;;;;;;5047659;28;20019;-76
2022/10/12 11:44:29;;;;;;;;;;;15.80;99.90;;;;;;5024502;28;19913;-75
2022/10/12 11:47:22;;;;;;;;;;;15.80;99.90;;;;;;5047955;28;19917;-75
2022/10/12 11:49:58;;;;;;;;;;;15.80;99.90;;;;;;5027638;28;19923;-74
2022/10/12 11:52:26;;;;;;;;;;;15.70;99.90;;;;;;5051287;28;19913;-75
2022/10/12 11:54:59;;;;;;;;;;;15.70;99.90;;;;;;5037392;28;19921;-75
2022/10/12 11:57:30;;;;;;;;;;;15.60;99.90;;;;;;5046932;28;20724;-75
2022/10/12 12:00:18;;;;;;;;;;;15.60;99.90;;;;;;5045109;28;20046;-75
2022/10/12 12:02:51;;;;;;;;;;;15.60;99.90;;;;;;5050333;28;19917;-76
2022/10/12 12:05:18;;;;;;;;;;;15.50;99.90;;;;;;5050181;28;19917;-76
2022/10/12 12:07:47;;;;;;;;;;;15.50;99.90;;;;;;5048278;28;19917;-76
2022/10/12 12:10:34;;;;;;;;;;;15.50;99.90;;;;;;5040930;28;19935;-76
2022/10/12 12:13:21;;;;;;;;;;;15.40;99.90;;;;;;5039175;28;19928;-76
2022/10/12 12:15:51;;;;;;;;;;;15.40;99.90;;;;;;5032735;28;19955;-74
2022/10/12 12:18:18;;;;;;;;;;;15.40;99.90;;;;;;5035688;28;19917;-76
2022/10/12 12:20:48;;;;;;;;;;;15.40;99.90;;;;;;5034010;28;19917;-75
2022/10/12 12:23:24;;;;;;;;;;;15.40;99.90;;;;;;5039801;28;20016;-75
2022/10/12 12:26:23;;;;;;;;;;;15.40;99.90;;;;;;5036367;28;19917;-75
2022/10/12 12:29:07;;;;;;;;;;;15.30;99.90;;;;;;4996644;28;19921;-77
2022/10/12 12:31:34;;;;;;;;;;;15.30;99.90;;;;;;5034263;28;19924;-77
2022/10/12 12:34:03;;;;;;;;;;;15.30;99.90;;;;;;5035396;28;19921;-77
2022/10/12 12:36:39;;;;;;;;;;;15.30;99.90;;;;;;5037079;28;19917;-75
2022/10/12 12:39:07;;;;;;;;;;;15.20;99.90;;;;;;5024414;28;19920;-77
2022/10/12 12:41:54;;;;;;;;;;;15.20;99.90;;;;;;5041675;28;19921;-76
2022/10/12 12:44:39;;;;;;;;;;;15.10;99.90;;;;;;5045695;28;19920;-74
2022/10/12 12:47:06;;;;;;;;;;;15.10;99.90;;;;;;5041894;28;19994;-75
2022/10/12 12:49:39;;;;;;;;;;;15.00;99.90;;;;;;5037206;28;19921;-76
2022/10/12 12:52:11;;;;;;;;;;;15.00;99.90;;;;;;5036566;28;19928;-76
2022/10/12 12:54:45;;;;;;;;;;;14.90;99.90;;;;;;5049112;28;19924;-74
2022/10/12 12:57:15;;;;;;;;;;;14.90;99.90;;;;;;5040807;28;20779;-76
2022/10/12 12:59:57;;;;;;;;;;;14.80;99.90;;;;;;5041658;28;19920;-76
2022/10/12 13:02:36;;;;;;;;;;;14.80;99.90;;;;;;5040882;28;20322;-75
2022/10/12 13:05:08;;;;;;;;;;;14.70;99.90;;;;;;5043626;28;19916;-74
2022/10/12 13:07:46;;;;;;;;;;;14.70;99.90;;;;;;5038670;28;19996;-75
2022/10/12 13:10:19;;;;;;;;;;;14.70;99.90;;;;;;5038856;28;19920;-74
2022/10/12 13:12:45;;;;;;;;;;;14.70;99.90;;;;;;5036204;28;19917;-75
2022/10/12 13:15:36;;;;;;;;;;;14.60;99.90;;;;;;5047826;28;19932;-75
2022/10/12 13:18:10;;;;;;;;;;;14.60;99.90;;;;;;5037376;28;20000;-74
2022/10/12 13:20:38;;;;;;;;;;;14.50;99.90;;;;;;5040983;28;19921;-75
2022/10/12 13:23:08;;;;;;;;;;;14.60;99.90;;;;;;5045387;28;19958;-75
2022/10/12 13:25:46;;;;;;;;;;;14.50;99.90;;;;;;5039456;28;19913;-76
2022/10/12 13:28:19;;;;;;;;;;;14.50;99.90;;;;;;5040460;28;20378;-74
2022/10/12 13:30:50;;;;;;;;;;;14.40;99.90;;;;;;5032597;28;19917;-77
2022/10/12 13:33:32;;;;;;;;;;;14.50;99.90;;;;;;5038578;28;19929;-77
2022/10/12 13:36:28;;;;;;;;;;;14.50;99.90;;;;;;5047569;28;20260;-74
2022/10/12 13:39:15;;;;;;;;;;;14.50;99.90;;;;;;5010222;28;19973;-77
2022/10/12 13:41:42;;;;;;;;;;;14.40;99.90;;;;;;5035196;28;19913;-74
2022/10/12 13:44:18;;;;;;;;;;;14.40;99.90;;;;;;5037163;28;20339;-74
2022/10/12 13:46:50;;;;;;;;;;;14.40;99.90;;;;;;5051196;28;20279;-76
2022/10/12 13:49:24;;;;;;;;;;;14.40;99.90;;;;;;5049778;28;19966;-75
2022/10/12 13:51:55;;;;;;;;;;;14.40;99.90;;;;;;5044675;28;20418;-76
2022/10/12 13:54:22;;;;;;;;;;;14.40;99.90;;;;;;5046732;28;19974;-75
2022/10/12 13:56:51;;;;;;;;;;;14.30;99.90;;;;;;5049413;28;19920;-75
2022/10/12 13:59:20;;;;;;;;;;;14.40;99.90;;;;;;5044084;28;20008;-74
2022/10/12 14:01:48;;;;;;;;;;;14.30;99.90;;;;;;5042609;28;19917;-75
2022/10/12 14:04:15;;;;;;;;;;;14.30;99.90;;;;;;5047098;28;19921;-75
2022/10/12 14:06:46;;;;;;;;;;;14.30;99.90;;;;;;5048719;28;19917;-75
2022/10/12 14:09:15;;;;;;;;;;;14.30;99.90;;;;;;5040111;28;19974;-74
2022/10/12 14:11:43;;;;;;;;;;;14.30;99.90;;;;;;5047945;28;20007;-74
2022/10/12 14:14:31;;;;;;;;;;;14.30;99.90;;;;;;5040079;28;20056;-74
2022/10/12 14:16:58;;;;;;;;;;;14.20;99.90;;;;;;5047669;28;20279;-75
2022/10/12 14:19:33;;;;;;;;;;;14.20;99.90;;;;;;5049792;28;20315;-75
2022/10/12 14:22:01;;;;;;;;;;;14.20;99.90;;;;;;5052140;28;19915;-74
2022/10/12 14:24:28;;;;;;;;;;;14.10;99.90;;;;;;5390928;22;19940;-74
2022/10/12 14:26:59;;;;;;;;;;;14.20;99.90;;;;;;5038016;28;19925;-74
2022/10/12 14:29:32;;;;;;;;;;;14.10;99.90;;;;;;5052735;28;20385;-75
2022/10/12 14:32:00;;;;;;;;;;;14.10;99.90;;;;;;5052594;28;19916;-74
2022/10/12 14:34:26;;;;;;;;;;;14.10;99.90;;;;;;5038266;28;19944;-74